createdAt,value
2022-11-19T00:02:17.684Z,15.00
2022-11-19T00:04:44.097Z,12.00
2022-11-19T00:07:10.537Z,12.30
2022-11-19T00:09:37.011Z,12.50
2022-11-19T00:12:22.098Z,15.20
2022-11-19T00:14:48.481Z,12.80
2022-11-19T00:17:14.851Z,13.10
2022-11-19T00:19:41.290Z,13.70
2022-11-19T00:22:10.054Z,14.60
2022-11-19T00:24:36.493Z,12.50
2022-11-19T00:27:02.945Z,14.10
2022-11-19T00:29:29.441Z,13.10
2022-11-19T00:31:55.865Z,13.30
2022-11-19T00:34:22.339Z,13.70
2022-11-19T00:36:48.752Z,12.90
2022-11-19T00:39:15.301Z,12.20
2022-11-19T00:41:41.689Z,12.40
2022-11-19T00:44:08.567Z,13.00
2022-11-19T00:46:34.931Z,13.70
2022-11-19T00:49:01.510Z,14.20
2022-11-19T00:51:30.235Z,14.50
2022-11-19T00:53:57.133Z,15.80
2022-11-19T00:56:25.487Z,15.10
2022-11-19T00:58:52.688Z,13.20
2022-11-19T01:01:21.657Z,15.60
2022-11-19T01:03:48.788Z,14.00
2022-11-19T01:06:19.505Z,13.10
2022-11-19T01:08:46.987Z,13.80
2022-11-19T01:11:16.949Z,15.10
2022-11-19T01:13:43.896Z,12.80
2022-11-19T01:16:16.536Z,14.20
2022-11-19T01:18:44.464Z,15.40
2022-11-19T01:21:12.203Z,15.40
2022-11-19T01:23:40.384Z,12.60
2022-11-19T01:26:07.592Z,14.10
2022-11-19T01:28:34.425Z,15.10
2022-11-19T01:31:06.790Z,14.80
2022-11-19T01:33:34.218Z,15.10
2022-11-19T01:36:03.825Z,15.50
2022-11-19T01:38:31.045Z,14.10
2022-11-19T01:40:58.769Z,17.90
2022-11-19T01:43:45.407Z,14.70
2022-11-19T01:46:14.650Z,15.50
2022-11-19T01:48:46.947Z,13.50
2022-11-19T01:51:51.667Z,15.20
2022-11-19T01:54:41.421Z,14.20
2022-11-19T01:57:13.207Z,14.80
2022-11-19T01:59:42.047Z,15.10
2022-11-19T02:02:10.783Z,16.30
2022-11-19T02:04:37.219Z,18.50
2022-11-19T02:07:04.228Z,17.30
2022-11-19T02:09:31.365Z,17.20
2022-11-19T02:12:06.121Z,15.50
2022-11-19T02:14:45.937Z,14.80
2022-11-19T02:17:38.331Z,15.90
2022-11-19T02:20:23.946Z,15.50
2022-11-19T02:23:04.849Z,14.70
2022-11-19T02:25:37.385Z,13.80
2022-11-19T02:28:19.018Z,13.90
2022-11-19T02:30:52.374Z,14.90
2022-11-19T02:33:34.328Z,15.60
2022-11-19T02:36:18.950Z,16.10
2022-11-19T02:38:58.136Z,15.90
2022-11-19T02:41:36.658Z,17.20
2022-11-19T02:44:47.398Z,18.90
2022-11-19T02:47:19.003Z,18.30
2022-11-19T02:49:46.960Z,16.90
2022-11-19T02:52:17.418Z,15.70
2022-11-19T02:54:44.218Z,18.60
2022-11-19T02:57:12.529Z,17.20
2022-11-19T03:00:15.465Z,15.00
2022-11-19T03:03:10.737Z,16.10
2022-11-19T03:05:44.486Z,15.80
2022-11-19T03:08:11.339Z,17.40
2022-11-19T03:11:15.542Z,16.00
2022-11-19T03:14:12.968Z,15.30
2022-11-19T03:16:42.266Z,17.40
2022-11-19T03:19:26.672Z,15.90
2022-11-19T03:21:59.766Z,19.80
2022-11-19T03:24:50.767Z,18.40
2022-11-19T03:27:27.044Z,16.40
2022-11-19T03:29:57.788Z,17.80
2022-11-19T03:32:30.689Z,16.90
2022-11-19T03:35:01.942Z,16.00
2022-11-19T03:37:31.481Z,14.80
2022-11-19T03:40:00.612Z,15.40
2022-11-19T03:42:27.675Z,14.90
2022-11-19T03:45:01.083Z,16.50
2022-11-19T03:47:34.079Z,19.00
2022-11-19T03:50:21.202Z,16.30
2022-11-19T03:52:47.717Z,16.90
2022-11-19T03:55:14.291Z,18.40
2022-11-19T03:57:40.895Z,17.10
2022-11-19T04:00:12.358Z,16.10
2022-11-19T04:02:41.538Z,17.80
2022-11-19T04:05:09.175Z,15.10
2022-11-19T04:07:35.632Z,15.20
2022-11-19T04:10:02.083Z,15.50
2022-11-19T04:12:28.505Z,16.20
2022-11-19T04:14:54.884Z,14.60
2022-11-19T04:17:21.403Z,15.70
2022-11-19T04:19:48.143Z,14.90
2022-11-19T04:22:14.585Z,14.80
2022-11-19T04:24:40.983Z,13.50
2022-11-19T04:27:07.432Z,13.90
2022-11-19T04:29:33.808Z,14.60
2022-11-19T04:32:00.290Z,16.00
2022-11-19T04:34:26.780Z,13.10
2022-11-19T04:36:53.197Z,12.10
2022-11-19T04:39:20.085Z,13.30
2022-11-19T04:41:46.725Z,15.40
2022-11-19T04:44:13.189Z,14.20
2022-11-19T04:46:39.668Z,13.60
2022-11-19T04:49:06.054Z,15.90
2022-11-19T04:51:32.620Z,13.90
2022-11-19T04:53:59.091Z,13.80
2022-11-19T04:56:25.477Z,15.00
2022-11-19T04:58:52.297Z,14.00
2022-11-19T05:01:20.514Z,14.80
2022-11-19T05:03:48.326Z,13.70
2022-11-19T05:06:14.759Z,15.60
2022-11-19T05:08:41.148Z,15.00
2022-11-19T05:11:07.615Z,14.80
2022-11-19T05:13:33.994Z,14.10
2022-11-19T05:16:03.239Z,15.70
2022-11-19T05:18:29.720Z,13.60
2022-11-19T05:20:56.112Z,13.70
2022-11-19T05:23:22.643Z,14.10
2022-11-19T05:25:49.014Z,13.20
2022-11-19T05:28:15.425Z,12.90
2022-11-19T05:30:42.032Z,12.90
2022-11-19T05:33:08.880Z,13.10
2022-11-19T05:35:35.526Z,14.70
2022-11-19T05:38:01.949Z,15.90
2022-11-19T05:40:28.455Z,14.50
2022-11-19T05:42:54.865Z,13.70
2022-11-19T05:45:21.375Z,14.30
2022-11-19T05:47:48.872Z,15.10
2022-11-19T05:50:15.653Z,14.10
2022-11-19T05:52:42.036Z,13.80
2022-11-19T05:55:08.588Z,13.80
2022-11-19T05:57:37.327Z,16.20
2022-11-19T06:00:05.261Z,13.80
2022-11-19T06:02:34.864Z,15.00
2022-11-19T06:05:01.469Z,14.80
2022-11-19T06:07:28.094Z,16.10
2022-11-19T06:09:54.571Z,13.70
2022-11-19T06:12:23.419Z,14.10
2022-11-19T06:14:49.800Z,14.60
2022-11-19T06:17:21.932Z,15.60
2022-11-19T06:19:48.359Z,16.40
2022-11-19T06:22:14.837Z,14.00
2022-11-19T06:24:41.242Z,15.00
2022-11-19T06:27:07.646Z,13.70
2022-11-19T06:29:34.743Z,13.60
2022-11-19T06:32:01.161Z,16.20
2022-11-19T06:34:27.566Z,17.80
2022-11-19T06:36:56.736Z,20.90
2022-11-19T06:39:23.203Z,22.10
2022-11-19T06:41:49.801Z,23.50
2022-11-19T06:44:16.383Z,20.20
2022-11-19T06:46:42.948Z,19.90
2022-11-19T06:49:11.429Z,18.00
2022-11-19T06:51:39.624Z,18.60
2022-11-19T06:54:07.261Z,16.00
2022-11-19T06:56:33.691Z,14.70
2022-11-19T06:59:00.137Z,13.70
2022-11-19T07:01:26.567Z,13.70
2022-11-19T07:03:52.975Z,12.80
2022-11-19T07:06:19.390Z,15.90
2022-11-19T07:08:46.008Z,15.20
2022-11-19T07:11:27.684Z,15.10
2022-11-19T07:13:58.558Z,14.70
2022-11-19T07:16:33.473Z,16.40
2022-11-19T07:19:01.889Z,15.30
2022-11-19T07:21:29.322Z,16.90
2022-11-19T07:23:57.232Z,13.50
2022-11-19T07:26:23.711Z,13.80
2022-11-19T07:28:50.566Z,13.30
2022-11-19T07:31:17.282Z,14.80
2022-11-19T07:33:43.940Z,16.10
2022-11-19T07:36:17.909Z,17.30
2022-11-19T07:38:44.860Z,16.00
2022-11-19T07:41:29.835Z,16.20
2022-11-19T07:43:56.258Z,16.10
2022-11-19T07:46:23.215Z,14.80
2022-11-19T07:48:54.479Z,13.60
2022-11-19T07:51:22.495Z,14.20
2022-11-19T07:53:49.746Z,17.60
2022-11-19T07:56:17.063Z,18.50
2022-11-19T07:58:43.939Z,19.00
2022-11-19T08:01:12.565Z,17.00
2022-11-19T08:03:39.215Z,16.80
2022-11-19T08:06:06.438Z,14.60
2022-11-19T08:08:33.421Z,12.70
2022-11-19T08:11:08.170Z,13.30
2022-11-19T08:13:35.760Z,13.40
2022-11-19T08:16:04.196Z,12.90
2022-11-19T08:18:31.666Z,13.10
2022-11-19T08:21:10.766Z,11.70
2022-11-19T08:23:38.664Z,12.50
2022-11-19T08:26:08.267Z,13.20
2022-11-19T08:28:34.965Z,11.20
2022-11-19T08:31:08.926Z,12.50
2022-11-19T08:33:36.267Z,13.60
2022-11-19T08:36:05.204Z,12.10
2022-11-19T08:38:37.217Z,12.80
2022-11-19T08:41:23.557Z,12.80
2022-11-19T08:43:49.985Z,12.30
2022-11-19T08:46:21.045Z,20.20
2022-11-19T08:48:49.776Z,16.30
2022-11-19T08:51:16.557Z,15.20
2022-11-19T08:53:42.938Z,14.80
2022-11-19T08:56:12.764Z,13.20
2022-11-19T08:58:41.951Z,12.90
2022-11-19T09:01:13.193Z,14.40
2022-11-19T09:03:41.895Z,12.40
2022-11-19T09:06:11.902Z,14.60
2022-11-19T09:08:38.993Z,14.20
2022-11-19T09:11:12.753Z,14.30
2022-11-19T09:13:39.451Z,11.70
2022-11-19T09:16:06.561Z,11.70
2022-11-19T09:18:33.644Z,10.80
2022-11-19T09:21:00.154Z,10.60
2022-11-19T09:23:27.458Z,12.20
2022-11-19T09:26:05.284Z,11.70
2022-11-19T09:28:33.206Z,11.60
2022-11-19T09:31:05.653Z,13.00
2022-11-19T09:33:34.512Z,14.10
2022-11-19T09:36:01.105Z,10.50
2022-11-19T09:38:27.552Z,10.90
2022-11-19T09:40:55.976Z,13.20
2022-11-19T09:43:22.446Z,13.40
2022-11-19T09:45:53.708Z,12.80
2022-11-19T09:48:23.209Z,14.70
2022-11-19T09:51:05.430Z,13.50
2022-11-19T09:53:48.821Z,12.50
2022-11-19T09:56:25.596Z,11.40
2022-11-19T09:58:52.754Z,13.10
2022-11-19T10:01:19.342Z,11.40
2022-11-19T10:03:50.835Z,11.80
2022-11-19T10:06:29.386Z,11.50
2022-11-19T10:09:14.491Z,12.40
2022-11-19T10:11:47.749Z,10.90
2022-11-19T10:14:47.439Z,11.20
2022-11-19T10:17:29.902Z,10.50
2022-11-19T10:20:07.945Z,10.80
2022-11-19T10:22:39.777Z,9.20
2022-11-19T10:25:21.728Z,10.80
2022-11-19T10:27:56.201Z,10.50
2022-11-19T10:30:26.669Z,10.50
2022-11-19T10:32:53.062Z,10.20
2022-11-19T10:35:28.481Z,9.80
2022-11-19T10:38:02.144Z,10.90
2022-11-19T10:40:34.618Z,10.60
2022-11-19T10:43:30.990Z,10.20
2022-11-19T10:46:00.161Z,10.60
2022-11-19T10:48:44.089Z,10.40
2022-11-19T10:51:23.395Z,9.60
2022-11-19T10:53:52.925Z,10.70
2022-11-19T10:56:23.185Z,9.50
2022-11-19T10:58:54.374Z,10.40
2022-11-19T11:01:35.554Z,9.20
2022-11-19T11:04:16.096Z,9.20
2022-11-19T11:06:56.252Z,9.40
2022-11-19T11:09:34.816Z,10.90
2022-11-19T11:12:29.948Z,10.90
2022-11-19T11:15:07.799Z,10.50
2022-11-19T11:17:36.510Z,11.10
2022-11-19T11:20:16.952Z,9.30
2022-11-19T11:22:45.655Z,8.70
2022-11-19T11:25:27.770Z,9.10
2022-11-19T11:28:08.211Z,8.40
2022-11-19T11:30:35.407Z,8.60
2022-11-19T11:33:29.850Z,7.10
2022-11-19T11:36:00.317Z,7.10
2022-11-19T11:38:28.003Z,7.10
2022-11-19T11:44:14.322Z,6.00
2022-11-19T11:46:44.792Z,5.90
2022-11-19T11:49:26.126Z,5.70
2022-11-19T11:52:02.376Z,5.00
2022-11-19T11:54:28.821Z,5.00
2022-11-19T11:57:13.837Z,4.40
2022-11-19T11:59:40.411Z,4.90
2022-11-19T12:02:17.837Z,5.60
2022-11-19T12:04:44.261Z,6.70
2022-11-19T12:07:19.913Z,6.50
2022-11-19T12:10:03.470Z,6.10
2022-11-19T12:13:25.562Z,6.70
2022-11-19T12:16:37.138Z,6.20
2022-11-19T12:19:22.206Z,5.30
2022-11-19T12:22:03.874Z,6.40
2022-11-19T12:24:53.827Z,7.70
2022-11-19T12:27:25.258Z,6.20
2022-11-19T12:30:13.699Z,5.60
2022-11-19T12:32:57.778Z,4.90
2022-11-19T12:35:56.647Z,4.80
2022-11-19T12:38:32.185Z,5.50
2022-11-19T12:41:12.011Z,5.50
2022-11-19T12:43:53.088Z,5.20
2022-11-19T12:46:40.253Z,5.20
2022-11-19T12:49:31.601Z,6.10
2022-11-19T12:52:26.227Z,4.70
2022-11-19T12:54:55.734Z,5.30
2022-11-19T12:57:37.376Z,5.20
2022-11-19T13:00:23.847Z,4.80
2022-11-19T13:03:08.746Z,5.40
2022-11-19T13:06:02.795Z,5.00
2022-11-19T13:08:33.970Z,5.40
2022-11-19T13:11:10.042Z,4.00
2022-11-19T13:13:41.939Z,4.40
2022-11-19T13:16:15.506Z,5.60
2022-11-19T13:18:52.645Z,4.70
2022-11-19T13:21:41.964Z,4.30
2022-11-19T13:24:17.263Z,4.90
2022-11-19T13:26:43.667Z,5.70
2022-11-19T13:29:31.611Z,5.50
2022-11-19T13:32:03.384Z,5.60
2022-11-19T13:34:45.290Z,6.30
2022-11-19T13:37:17.815Z,6.00
2022-11-19T13:40:01.069Z,6.70
2022-11-19T13:43:04.029Z,6.50
2022-11-19T13:45:37.519Z,5.90
2022-11-19T13:48:32.748Z,6.90
2022-11-19T13:51:02.993Z,6.70
2022-11-19T13:53:32.354Z,5.80
2022-11-19T13:55:59.791Z,14.80
2022-11-19T13:58:34.797Z,14.60
2022-11-19T14:01:08.509Z,8.30
2022-11-19T14:03:53.969Z,6.40
2022-11-19T14:06:37.206Z,6.00
2022-11-19T14:09:19.248Z,6.20
2022-11-19T14:11:48.872Z,6.50
2022-11-19T14:15:03.201Z,6.70
2022-11-19T14:18:09.419Z,7.30
2022-11-19T14:21:03.385Z,5.50
2022-11-19T14:24:08.619Z,8.40
2022-11-19T14:26:41.081Z,7.60
2022-11-19T14:29:27.497Z,4.90
2022-11-19T14:31:59.914Z,6.00
2022-11-19T14:34:29.746Z,4.90
2022-11-19T14:36:58.515Z,6.00
2022-11-19T14:39:31.247Z,5.90
2022-11-19T14:42:19.802Z,6.20
2022-11-19T14:45:06.413Z,7.50
2022-11-19T14:47:36.653Z,5.80
2022-11-19T14:50:07.828Z,6.00
2022-11-19T14:52:50.188Z,5.70
2022-11-19T14:55:16.525Z,5.50
2022-11-19T14:57:44.554Z,7.10
2022-11-19T15:00:14.193Z,6.90
2022-11-19T15:02:47.173Z,7.80
2022-11-19T15:05:29.630Z,6.30
2022-11-19T15:08:18.125Z,6.80
2022-11-19T15:11:08.884Z,7.10
2022-11-19T15:13:40.670Z,6.70
2022-11-19T15:16:29.955Z,6.20
2022-11-19T15:19:06.497Z,7.40
2022-11-19T15:21:58.585Z,8.00
2022-11-19T15:24:56.678Z,7.60
2022-11-19T15:27:52.217Z,6.40
2022-11-19T15:30:27.237Z,6.70
2022-11-19T15:33:11.301Z,7.50
2022-11-19T15:36:05.689Z,8.00
2022-11-19T15:38:42.487Z,7.90
2022-11-19T15:41:25.378Z,7.30
2022-11-19T15:43:54.431Z,7.20
2022-11-19T15:46:30.100Z,9.60
2022-11-19T15:49:07.721Z,10.10
2022-11-19T15:51:48.918Z,7.70
2022-11-19T15:54:15.462Z,7.10
2022-11-19T15:56:50.741Z,9.40
2022-11-19T15:59:23.055Z,9.30
2022-11-19T16:02:02.349Z,9.10
2022-11-19T16:04:34.414Z,10.10
2022-11-19T16:07:02.485Z,8.00
2022-11-19T16:09:29.226Z,7.80
2022-11-19T16:12:16.281Z,10.20
2022-11-19T16:15:08.692Z,11.00
2022-11-19T16:17:47.406Z,12.20
2022-11-19T16:20:13.902Z,11.20
2022-11-19T16:22:45.186Z,11.40
2022-11-19T16:25:34.515Z,10.90
2022-11-19T16:28:06.126Z,11.90
2022-11-19T16:30:43.288Z,11.90
2022-11-19T16:33:22.151Z,11.40
2022-11-19T16:35:52.907Z,11.90
2022-11-19T16:38:40.338Z,13.80
2022-11-19T16:41:27.196Z,12.70
2022-11-19T16:43:53.882Z,10.90
2022-11-19T16:46:22.688Z,15.20
2022-11-19T16:48:49.074Z,14.60
2022-11-19T16:51:34.861Z,16.00
2022-11-19T16:54:02.479Z,13.00
2022-11-19T16:56:47.685Z,12.60
2022-11-19T16:59:23.967Z,13.50
2022-11-19T17:01:59.839Z,13.30
2022-11-19T17:04:30.979Z,15.70
2022-11-19T17:06:59.011Z,15.00
2022-11-19T17:09:47.581Z,15.20
2022-11-19T17:12:27.557Z,13.90
2022-11-19T17:14:59.827Z,17.20
2022-11-19T17:17:41.977Z,15.90
2022-11-19T17:20:47.378Z,16.70
2022-11-19T17:23:38.439Z,16.60
2022-11-19T17:26:07.603Z,16.80
2022-11-19T17:28:36.094Z,39.10
2022-11-19T17:31:05.450Z,20.70
2022-11-19T17:33:35.636Z,17.00
2022-11-19T17:36:03.416Z,29.30
2022-11-19T17:38:32.362Z,28.40
2022-11-19T17:41:01.125Z,24.00
2022-11-19T17:43:49.160Z,22.00
2022-11-19T17:46:16.036Z,23.80
2022-11-19T17:48:44.344Z,23.90
2022-11-19T17:51:12.758Z,22.60
2022-11-19T17:53:42.333Z,22.60
2022-11-19T17:56:29.346Z,20.10
2022-11-19T17:58:56.402Z,21.80
2022-11-19T18:01:22.898Z,21.90
2022-11-19T18:03:49.596Z,22.90
2022-11-19T18:06:17.543Z,24.10
2022-11-19T18:08:44.307Z,23.40
2022-11-19T18:11:23.418Z,29.90
2022-11-19T18:13:53.587Z,27.30
2022-11-19T18:16:25.648Z,24.40
2022-11-19T18:18:52.057Z,25.20
2022-11-19T18:21:20.864Z,23.20
2022-11-19T18:23:49.205Z,18.60
2022-11-19T18:26:18.405Z,20.90
2022-11-19T18:28:48.793Z,20.50
2022-11-19T18:31:29.472Z,19.60
2022-11-19T18:33:56.499Z,21.40
2022-11-19T18:36:24.807Z,35.50
2022-11-19T18:38:52.771Z,38.10
2022-11-19T18:41:19.321Z,27.60
2022-11-19T18:44:05.132Z,19.90
2022-11-19T18:46:31.774Z,16.70
2022-11-19T18:48:58.354Z,19.70
2022-11-19T18:51:26.433Z,18.50
2022-11-19T18:53:53.026Z,18.70
2022-11-19T18:56:19.814Z,18.60
2022-11-19T18:58:46.490Z,17.70
2022-11-19T19:01:13.210Z,18.40
2022-11-19T19:03:39.845Z,16.10
2022-11-19T19:06:08.298Z,18.10
2022-11-19T19:08:36.008Z,18.10
2022-11-19T19:11:24.844Z,18.90
2022-11-19T19:13:51.875Z,19.80
2022-11-19T19:16:18.297Z,20.80
2022-11-19T19:18:44.705Z,21.20
2022-11-19T19:21:18.493Z,23.10
2022-11-19T19:23:48.327Z,21.30
2022-11-19T19:26:16.745Z,22.60
2022-11-19T19:28:44.791Z,21.00
2022-11-19T19:31:15.037Z,34.00
2022-11-19T19:33:46.442Z,22.70
2022-11-19T19:36:13.928Z,35.00
2022-11-19T19:38:40.851Z,30.70
2022-11-19T19:41:11.717Z,23.00
2022-11-19T19:43:38.263Z,24.20
2022-11-19T19:46:10.160Z,25.40
2022-11-19T19:48:36.689Z,30.80
2022-11-19T19:51:03.836Z,34.50
2022-11-19T19:53:30.263Z,22.20
2022-11-19T19:56:08.177Z,36.70
2022-11-19T19:58:36.633Z,28.40
2022-11-19T20:01:08.457Z,23.00
2022-11-19T20:03:35.896Z,21.70
2022-11-19T20:06:03.668Z,26.90
2022-11-19T20:08:30.496Z,33.90
2022-11-19T20:11:05.433Z,29.20
2022-11-19T20:13:36.650Z,28.10
2022-11-19T20:16:19.643Z,25.90
2022-11-19T20:18:47.570Z,23.40
2022-11-19T20:21:16.909Z,22.90
2022-11-19T20:23:43.774Z,23.20
2022-11-19T20:26:13.569Z,25.00
2022-11-19T20:28:40.495Z,22.80
2022-11-19T20:31:20.274Z,23.00
2022-11-19T20:33:50.668Z,22.60
2022-11-19T20:36:17.335Z,24.60
2022-11-19T20:38:46.883Z,22.80
2022-11-19T20:41:33.483Z,19.90
2022-11-19T20:44:20.047Z,20.80
2022-11-19T20:46:53.105Z,22.00
2022-11-19T20:49:22.118Z,23.30
2022-11-19T20:51:48.985Z,20.80
2022-11-19T20:54:18.350Z,20.10
2022-11-19T20:56:45.086Z,21.10
2022-11-19T20:59:12.269Z,18.90
2022-11-19T21:01:40.928Z,16.80
2022-11-19T21:04:07.674Z,18.10
2022-11-19T21:06:34.266Z,17.90
2022-11-19T21:09:00.849Z,18.50
2022-11-19T21:11:27.297Z,19.50
2022-11-19T21:13:53.816Z,19.10
2022-11-19T21:16:23.138Z,18.90
2022-11-19T21:18:52.912Z,19.90
2022-11-19T21:21:21.137Z,17.40
2022-11-19T21:23:48.038Z,18.50
2022-11-19T21:26:17.220Z,18.70
2022-11-19T21:28:51.823Z,20.10
2022-11-19T21:31:20.740Z,19.90
2022-11-19T21:33:47.175Z,19.90
2022-11-19T21:36:13.785Z,18.90
2022-11-19T21:38:40.709Z,18.70
2022-11-19T21:41:09.269Z,17.10
2022-11-19T21:43:35.681Z,16.70
2022-11-19T21:46:07.217Z,18.30
2022-11-19T21:48:33.622Z,17.50
2022-11-19T21:51:00.114Z,17.80
2022-11-19T21:53:26.554Z,18.60
2022-11-19T21:55:52.961Z,19.60
2022-11-19T21:58:19.366Z,17.50
2022-11-19T22:00:47.027Z,16.40
2022-11-19T22:03:14.289Z,17.30
2022-11-19T22:05:41.157Z,17.30
2022-11-19T22:08:07.717Z,19.10
2022-11-19T22:10:34.173Z,17.20
2022-11-19T22:13:00.587Z,21.20
2022-11-19T22:15:27.638Z,24.00
2022-11-19T22:17:55.028Z,19.30
2022-11-19T22:20:21.780Z,18.20
2022-11-19T22:22:48.178Z,25.60
2022-11-19T22:25:14.768Z,24.40
2022-11-19T22:27:41.893Z,29.50
2022-11-19T22:30:10.184Z,18.30
2022-11-19T22:32:36.721Z,18.40
2022-11-19T22:35:04.685Z,18.60
2022-11-19T22:37:31.224Z,18.60
2022-11-19T22:40:00.022Z,17.70
2022-11-19T22:42:26.600Z,16.90
2022-11-19T22:44:53.161Z,18.90
2022-11-19T22:47:19.694Z,18.00
2022-11-19T22:49:46.092Z,16.10
2022-11-19T22:52:15.527Z,19.30
2022-11-19T22:54:42.131Z,16.60
2022-11-19T22:57:09.190Z,17.30
2022-11-19T22:59:35.825Z,18.20
2022-11-19T23:02:02.378Z,16.70
2022-11-19T23:04:29.308Z,17.50
2022-11-19T23:06:56.312Z,16.80
2022-11-19T23:09:23.231Z,19.40
2022-11-19T23:12:08.771Z,17.40
2022-11-19T23:14:35.355Z,16.80
2022-11-19T23:17:01.786Z,18.50
2022-11-19T23:19:28.223Z,16.50
2022-11-19T23:21:54.682Z,16.80
2022-11-19T23:24:21.523Z,16.20
2022-11-19T23:26:47.905Z,15.20
2022-11-19T23:29:14.415Z,15.80
2022-11-19T23:31:40.928Z,17.20
2022-11-19T23:34:07.889Z,17.60
2022-11-19T23:36:39.346Z,21.40
2022-11-19T23:39:15.077Z,19.40
2022-11-19T23:41:41.702Z,20.10
2022-11-19T23:44:08.257Z,17.00
2022-11-19T23:46:35.888Z,15.70
2022-11-19T23:49:03.401Z,14.80
2022-11-19T23:51:31.950Z,13.80
2022-11-19T23:53:58.828Z,15.10
2022-11-19T23:56:26.806Z,12.70
2022-11-19T23:58:53.481Z,14.10
